createdAt,value
2018-02-14T00:00:53.478Z,878.44
2018-02-14T00:01:53.448Z,878.46
2018-02-14T00:02:53.432Z,878.50
2018-02-14T00:03:53.413Z,878.42
2018-02-14T00:04:53.387Z,878.48
2018-02-14T00:05:53.367Z,878.54
2018-02-14T00:06:53.353Z,878.53
2018-02-14T00:07:53.333Z,878.55
2018-02-14T00:08:53.317Z,878.54
2018-02-14T00:09:53.282Z,878.55
2018-02-14T00:10:53.259Z,878.60
2018-02-14T00:11:53.243Z,878.52
2018-02-14T00:12:53.220Z,878.56
2018-02-14T00:13:53.203Z,878.55
2018-02-14T00:14:53.179Z,878.55
2018-02-14T00:15:53.158Z,878.55
2018-02-14T00:16:53.135Z,878.52
2018-02-14T00:17:53.116Z,878.55
2018-02-14T00:18:53.095Z,878.60
2018-02-14T00:19:53.075Z,878.56
2018-02-14T00:20:53.049Z,878.56
2018-02-14T00:21:53.029Z,878.52
2018-02-14T00:22:53.003Z,878.55
2018-02-14T00:23:52.993Z,878.53
2018-02-14T00:24:52.965Z,878.50
2018-02-14T00:25:52.945Z,878.51
2018-02-14T00:26:52.927Z,878.49
2018-02-14T00:27:52.902Z,878.50
2018-02-14T00:28:52.887Z,878.50
2018-02-14T00:29:52.857Z,878.48
2018-02-14T00:30:52.840Z,878.46
2018-02-14T00:31:52.817Z,878.51
2018-02-14T00:32:52.795Z,878.48
2018-02-14T00:33:52.777Z,878.53
2018-02-14T00:34:52.755Z,878.50
2018-02-14T00:35:52.731Z,878.54
2018-02-14T00:36:52.707Z,878.51
2018-02-14T00:37:52.698Z,878.53
2018-02-14T00:38:52.665Z,878.53
2018-02-14T00:39:52.649Z,878.52
2018-02-14T00:40:52.629Z,878.52
2018-02-14T00:41:52.605Z,878.54
2018-02-14T00:42:52.587Z,878.50
2018-02-14T00:43:52.571Z,878.52
2018-02-14T00:44:52.545Z,878.58
2018-02-14T00:45:52.529Z,878.52
2018-02-14T00:46:52.509Z,878.48
2018-02-14T00:47:52.483Z,878.53
2018-02-14T00:48:52.463Z,878.52
2018-02-14T00:49:52.431Z,878.55
2018-02-14T00:50:52.415Z,878.54
2018-02-14T00:51:52.394Z,878.52
2018-02-14T00:52:52.372Z,878.52
2018-02-14T00:53:52.357Z,878.52
2018-02-14T00:54:52.335Z,878.58
2018-02-14T00:55:52.305Z,878.58
2018-02-14T00:56:52.286Z,878.59
2018-02-14T00:57:52.268Z,878.60
2018-02-14T00:58:52.245Z,878.62
2018-02-14T00:59:52.221Z,878.57
2018-02-14T01:00:52.204Z,878.62
2018-02-14T01:01:52.180Z,878.62
2018-02-14T01:02:52.160Z,878.66
2018-02-14T01:03:52.139Z,878.66
2018-02-14T01:04:52.120Z,878.70
2018-02-14T01:05:52.097Z,878.73
2018-02-14T01:06:52.075Z,878.69
2018-02-14T01:07:52.057Z,878.71
2018-02-14T01:08:52.035Z,878.76
2018-02-14T01:09:52.015Z,878.71
2018-02-14T01:10:51.994Z,878.77
2018-02-14T01:11:51.969Z,878.72
2018-02-14T01:12:51.949Z,878.77
2018-02-14T01:13:51.931Z,878.78
2018-02-14T01:14:51.910Z,878.78
2018-02-14T01:15:51.892Z,878.75
2018-02-14T01:16:51.865Z,878.74
2018-02-14T01:17:51.844Z,878.77
2018-02-14T01:18:51.817Z,878.77
2018-02-14T01:19:51.806Z,878.77
2018-02-14T01:20:51.784Z,878.75
2018-02-14T01:21:51.763Z,878.80
2018-02-14T01:22:51.741Z,878.77
2018-02-14T01:23:51.717Z,878.77
2018-02-14T01:24:51.703Z,878.75
2018-02-14T01:25:51.670Z,878.78
2018-02-14T01:26:51.660Z,878.76
2018-02-14T01:27:51.636Z,878.79
2018-02-14T01:28:51.612Z,878.80
2018-02-14T01:29:51.588Z,878.76
2018-02-14T01:30:51.570Z,878.77
2018-02-14T01:31:51.553Z,878.79
2018-02-14T01:32:51.530Z,878.82
2018-02-14T01:33:51.510Z,878.79
2018-02-14T01:34:51.488Z,878.78
2018-02-14T01:35:51.463Z,878.79
2018-02-14T01:36:51.446Z,878.79
2018-02-14T01:37:51.422Z,878.77
2018-02-14T01:38:51.400Z,878.78
2018-02-14T01:39:51.382Z,878.79
2018-02-14T01:40:51.359Z,878.84
2018-02-14T01:41:51.339Z,878.78
2018-02-14T01:42:51.318Z,878.77
2018-02-14T01:43:51.298Z,878.74
2018-02-14T01:44:51.276Z,878.70
2018-02-14T01:45:51.249Z,878.74
2018-02-14T01:46:51.235Z,878.72
2018-02-14T01:47:51.208Z,878.76
2018-02-14T01:48:51.189Z,878.76
2018-02-14T01:49:51.168Z,878.75
2018-02-14T01:50:51.150Z,878.74
2018-02-14T01:51:51.128Z,878.81
2018-02-14T01:52:51.104Z,878.77
2018-02-14T01:53:51.086Z,878.77
2018-02-14T01:54:51.058Z,878.73
2018-02-14T01:55:51.040Z,878.72
2018-02-14T01:56:51.020Z,878.76
2018-02-14T01:57:50.996Z,878.74
2018-02-14T01:58:50.976Z,878.73
2018-02-14T01:59:50.958Z,878.76
2018-02-14T02:00:50.936Z,878.75
2018-02-14T02:01:50.918Z,878.73
2018-02-14T02:02:50.900Z,878.75
2018-02-14T02:03:50.876Z,878.70
2018-02-14T02:04:50.854Z,878.67
2018-02-14T02:05:50.830Z,878.70
2018-02-14T02:06:50.807Z,878.68
2018-02-14T02:07:50.786Z,878.70
2018-02-14T02:08:50.768Z,878.66
2018-02-14T02:09:50.748Z,878.73
2018-02-14T02:10:50.720Z,878.69
2018-02-14T02:11:50.705Z,878.74
2018-02-14T02:12:50.681Z,878.73
2018-02-14T02:13:50.657Z,878.72
2018-02-14T02:14:50.644Z,878.78
2018-02-14T02:15:50.622Z,878.79
2018-02-14T02:16:50.600Z,878.76
2018-02-14T02:17:50.577Z,878.76
2018-02-14T02:18:50.556Z,878.76
2018-02-14T02:19:50.534Z,878.75
2018-02-14T02:20:50.514Z,878.75
2018-02-14T02:21:50.492Z,878.74
2018-02-14T02:22:50.467Z,878.74
2018-02-14T02:23:50.448Z,878.72
2018-02-14T02:24:50.434Z,878.71
2018-02-14T02:25:50.407Z,878.71
2018-02-14T02:26:50.388Z,878.73
2018-02-14T02:27:50.363Z,878.74
2018-02-14T02:28:50.338Z,878.71
2018-02-14T02:29:50.324Z,878.75
2018-02-14T02:30:50.300Z,878.72
2018-02-14T02:31:50.286Z,878.69
2018-02-14T02:32:50.256Z,878.68
2018-02-14T02:33:50.238Z,878.66
2018-02-14T02:34:50.218Z,878.69
2018-02-14T02:35:50.194Z,878.71
2018-02-14T02:36:50.178Z,878.71
2018-02-14T02:37:50.152Z,878.74
2018-02-14T02:38:50.137Z,878.71
2018-02-14T02:39:50.110Z,878.73
2018-02-14T02:40:50.092Z,878.65
2018-02-14T02:41:50.064Z,878.67
2018-02-14T02:42:50.049Z,878.63
2018-02-14T02:43:50.028Z,878.63
2018-02-14T02:44:50.004Z,878.65
2018-02-14T02:45:49.984Z,878.65
2018-02-14T02:46:49.960Z,878.61
2018-02-14T02:47:49.942Z,878.63
2018-02-14T02:48:49.924Z,878.62
2018-02-14T02:49:49.895Z,878.62
2018-02-14T02:50:49.876Z,878.63
2018-02-14T02:51:49.858Z,878.63
2018-02-14T02:52:49.836Z,878.67
2018-02-14T02:53:49.812Z,878.66
2018-02-14T02:54:49.794Z,878.66
2018-02-14T02:55:49.780Z,878.66
2018-02-14T02:56:49.752Z,878.68
2018-02-14T02:57:49.730Z,878.66
2018-02-14T02:58:49.713Z,878.64
2018-02-14T02:59:49.686Z,878.67
2018-02-14T03:00:49.669Z,878.66
2018-02-14T03:01:49.645Z,878.68
2018-02-14T03:02:49.622Z,878.67
2018-02-14T03:03:49.606Z,878.72
2018-02-14T03:04:49.578Z,878.68
2018-02-14T03:05:49.560Z,878.68
2018-02-14T03:06:49.538Z,878.68
2018-02-14T03:07:49.518Z,878.68
2018-02-14T03:08:49.498Z,878.62
2018-02-14T03:09:49.474Z,878.69
2018-02-14T03:10:49.454Z,878.69
2018-02-14T03:11:49.436Z,878.62
2018-02-14T03:12:49.414Z,878.66
2018-02-14T03:13:49.386Z,878.60
2018-02-14T03:14:49.372Z,878.64
2018-02-14T03:15:49.353Z,878.65
2018-02-14T03:16:49.328Z,878.64
2018-02-14T03:17:49.306Z,878.59
2018-02-14T03:18:49.284Z,878.65
2018-02-14T03:19:49.265Z,878.66
2018-02-14T03:20:49.240Z,878.62
2018-02-14T03:21:49.224Z,878.62
2018-02-14T03:22:49.194Z,878.58
2018-02-14T03:23:49.178Z,878.61
2018-02-14T03:24:49.157Z,878.60
2018-02-14T03:25:49.138Z,878.65
2018-02-14T03:26:49.114Z,878.60
2018-02-14T03:27:49.094Z,878.61
2018-02-14T03:28:49.076Z,878.57
2018-02-14T03:29:49.054Z,878.57
2018-02-14T03:30:49.029Z,878.55
2018-02-14T03:31:49.002Z,878.57
2018-02-14T03:32:48.980Z,878.55
2018-02-14T03:33:48.966Z,878.55
2018-02-14T03:34:48.940Z,878.54
2018-02-14T03:35:48.926Z,878.55
2018-02-14T03:36:48.897Z,878.55
2018-02-14T03:37:48.878Z,878.54
2018-02-14T03:38:48.861Z,878.55
2018-02-14T03:39:48.838Z,878.55
2018-02-14T03:40:48.809Z,878.53
2018-02-14T03:41:48.791Z,878.54
2018-02-14T03:42:48.772Z,878.52
2018-02-14T03:43:48.748Z,878.55
2018-02-14T03:44:48.726Z,878.57
2018-02-14T03:45:48.710Z,878.54
2018-02-14T03:46:48.684Z,878.65
2018-02-14T03:47:48.668Z,878.59
2018-02-14T03:48:48.646Z,878.60
2018-02-14T03:49:48.624Z,878.63
2018-02-14T03:50:48.600Z,878.59
2018-02-14T03:51:48.582Z,878.63
2018-02-14T03:52:48.566Z,878.63
2018-02-14T03:53:48.538Z,878.76
2018-02-14T03:54:48.520Z,878.63
2018-02-14T03:55:48.496Z,878.64
2018-02-14T03:56:48.473Z,878.66
2018-02-14T03:57:48.456Z,878.71
2018-02-14T03:58:48.436Z,878.74
2018-02-14T03:59:48.414Z,878.76
2018-02-14T04:00:48.390Z,878.78
2018-02-14T04:01:48.368Z,878.80
2018-02-14T04:02:48.341Z,878.83
2018-02-14T04:03:48.324Z,878.91
2018-02-14T04:04:48.304Z,878.91
2018-02-14T04:05:48.284Z,878.93
2018-02-14T04:06:48.262Z,878.95
2018-02-14T04:07:48.240Z,878.92
2018-02-14T04:08:48.222Z,878.93
2018-02-14T04:09:48.212Z,879.00
2018-02-14T04:10:48.174Z,878.96
2018-02-14T04:11:48.153Z,879.00
2018-02-14T04:12:48.134Z,879.04
2018-02-14T04:13:48.113Z,879.04
2018-02-14T04:14:48.090Z,879.07
2018-02-14T04:15:48.070Z,879.11
2018-02-14T04:16:48.046Z,879.12
2018-02-14T04:17:48.026Z,879.14
2018-02-14T04:18:48.007Z,879.21
2018-02-14T04:19:47.980Z,879.20
2018-02-14T04:20:47.962Z,879.24
2018-02-14T04:21:47.944Z,879.20
2018-02-14T04:22:47.918Z,879.20
2018-02-14T04:23:47.896Z,879.23
2018-02-14T04:24:47.876Z,879.24
2018-02-14T04:25:47.860Z,879.28
2018-02-14T04:26:47.836Z,879.27
2018-02-14T04:27:47.814Z,879.28
2018-02-14T04:28:47.794Z,879.32
2018-02-14T04:29:47.768Z,879.30
2018-02-14T04:30:47.748Z,879.32
2018-02-14T04:31:47.726Z,879.38
2018-02-14T04:32:47.706Z,879.33
2018-02-14T04:33:47.689Z,879.33
2018-02-14T04:34:47.664Z,879.37
2018-02-14T04:35:47.643Z,879.36
2018-02-14T04:36:47.628Z,879.35
2018-02-14T04:37:47.598Z,879.36
2018-02-14T04:38:47.574Z,879.31
2018-02-14T04:39:47.558Z,879.36
2018-02-14T04:40:47.533Z,879.35
2018-02-14T04:41:47.516Z,879.34
2018-02-14T04:42:47.497Z,879.32
2018-02-14T04:43:47.470Z,879.40
2018-02-14T04:44:47.451Z,879.40
2018-02-14T04:45:47.428Z,879.41
2018-02-14T04:46:47.414Z,879.44
2018-02-14T04:47:47.392Z,879.43
2018-02-14T04:48:47.364Z,879.47
2018-02-14T04:49:47.368Z,879.46
2018-02-14T04:50:47.322Z,879.46
2018-02-14T04:51:47.300Z,879.45
2018-02-14T04:52:47.278Z,879.50
2018-02-14T04:53:47.261Z,879.50
2018-02-14T04:54:47.246Z,879.52
2018-02-14T04:55:47.218Z,879.60
2018-02-14T04:56:47.197Z,879.58
2018-02-14T04:57:47.170Z,879.62
2018-02-14T04:58:47.150Z,879.65
2018-02-14T04:59:47.127Z,879.68
2018-02-14T05:00:47.108Z,879.66
2018-02-14T05:01:47.084Z,879.68
2018-02-14T05:02:47.064Z,879.68
2018-02-14T05:03:47.041Z,879.66
2018-02-14T05:04:47.022Z,879.71
2018-02-14T05:05:47.001Z,879.67
2018-02-14T05:06:46.976Z,879.73
2018-02-14T05:07:46.959Z,879.69
2018-02-14T05:08:46.940Z,879.72
2018-02-14T05:09:46.915Z,879.67
2018-02-14T05:10:46.896Z,879.69
2018-02-14T05:11:46.877Z,879.72
2018-02-14T05:12:46.850Z,879.69
2018-02-14T05:13:46.829Z,879.69
2018-02-14T05:14:46.804Z,879.71
2018-02-14T05:15:46.788Z,879.73
2018-02-14T05:16:46.764Z,879.75
2018-02-14T05:17:46.746Z,879.76
2018-02-14T05:18:46.716Z,879.78
2018-02-14T05:19:46.696Z,879.79
2018-02-14T05:20:46.678Z,879.80
2018-02-14T05:21:46.656Z,879.81
2018-02-14T05:22:46.634Z,879.78
2018-02-14T05:23:46.608Z,879.80
2018-02-14T05:24:46.586Z,879.84
2018-02-14T05:25:46.565Z,879.86
2018-02-14T05:26:46.544Z,879.86
2018-02-14T05:27:46.526Z,879.85
2018-02-14T05:28:46.502Z,879.85
2018-02-14T05:29:46.482Z,879.84
2018-02-14T05:30:46.460Z,879.85
2018-02-14T05:31:46.434Z,879.85
2018-02-14T05:32:46.412Z,879.85
2018-02-14T05:33:46.396Z,879.89
2018-02-14T05:34:46.370Z,879.86
2018-02-14T05:35:46.350Z,879.88
2018-02-14T05:36:46.328Z,879.91
2018-02-14T05:37:46.314Z,879.93
2018-02-14T05:38:46.282Z,879.95
2018-02-14T05:39:46.266Z,879.93
2018-02-14T05:40:46.241Z,879.96
2018-02-14T05:41:46.218Z,879.97
2018-02-14T05:42:46.192Z,879.98
2018-02-14T05:43:46.175Z,879.98
2018-02-14T05:44:46.152Z,879.95
2018-02-14T05:45:46.128Z,879.96
2018-02-14T05:46:46.111Z,879.97
2018-02-14T05:47:46.091Z,879.98
2018-02-14T05:48:46.067Z,879.99
2018-02-14T05:49:46.047Z,880.00
2018-02-14T05:50:46.021Z,880.03
2018-02-14T05:51:46.000Z,879.99
2018-02-14T05:52:45.977Z,880.01
2018-02-14T05:53:45.958Z,879.99
2018-02-14T05:54:45.937Z,880.01
2018-02-14T05:55:45.913Z,880.05
2018-02-14T05:56:45.887Z,880.06
2018-02-14T05:57:45.870Z,880.06
2018-02-14T05:58:45.847Z,880.07
2018-02-14T05:59:45.847Z,880.03
2018-02-14T06:00:45.803Z,880.04
2018-02-14T06:01:45.785Z,880.04
2018-02-14T06:02:45.757Z,880.06
2018-02-14T06:03:45.735Z,880.09
2018-02-14T06:04:45.719Z,880.07
2018-02-14T06:05:45.696Z,880.03
2018-02-14T06:06:45.665Z,880.12
2018-02-14T06:07:45.647Z,880.09
2018-02-14T06:08:45.627Z,880.11
2018-02-14T06:09:45.605Z,880.14
2018-02-14T06:10:45.581Z,880.14
2018-02-14T06:11:45.557Z,880.15
2018-02-14T06:12:45.539Z,880.20
2018-02-14T06:13:45.519Z,880.20
2018-02-14T06:14:45.495Z,880.23
2018-02-14T06:15:45.472Z,880.31
2018-02-14T06:16:45.453Z,880.29
2018-02-14T06:17:45.427Z,880.31
2018-02-14T06:18:45.403Z,880.37
2018-02-14T06:19:45.380Z,880.36
2018-02-14T06:20:45.365Z,880.38
2018-02-14T06:21:45.335Z,880.43
2018-02-14T06:22:45.319Z,880.45
2018-02-14T06:23:45.301Z,880.47
2018-02-14T06:24:45.275Z,880.47
2018-02-14T06:25:45.251Z,880.49
2018-02-14T06:26:45.227Z,880.50
2018-02-14T06:27:45.209Z,880.53
2018-02-14T06:28:45.183Z,880.55
2018-02-14T06:29:45.161Z,880.55
2018-02-14T06:30:45.139Z,880.58
2018-02-14T06:31:45.115Z,880.60
2018-02-14T06:32:45.097Z,880.62
2018-02-14T06:33:45.073Z,880.62
2018-02-14T06:34:45.049Z,880.66
2018-02-14T06:35:45.031Z,880.62
2018-02-14T06:36:45.008Z,880.64
2018-02-14T06:37:44.989Z,880.68
2018-02-14T06:38:44.965Z,880.66
2018-02-14T06:39:44.940Z,880.68
2018-02-14T06:40:44.919Z,880.67
2018-02-14T06:41:44.894Z,880.67
2018-02-14T06:42:44.875Z,880.71
2018-02-14T06:43:44.845Z,880.71
2018-02-14T06:44:44.829Z,880.74
2018-02-14T06:45:44.809Z,880.79
2018-02-14T06:46:44.783Z,880.81
2018-02-14T06:47:44.767Z,880.75
2018-02-14T06:48:44.775Z,880.80
2018-02-14T06:49:44.723Z,880.80
2018-02-14T06:50:44.695Z,880.82
2018-02-14T06:51:44.671Z,880.80
2018-02-14T06:52:44.654Z,880.83
2018-02-14T06:53:44.627Z,880.87
2018-02-14T06:54:44.605Z,880.87
2018-02-14T06:55:44.583Z,880.92
2018-02-14T06:56:44.560Z,880.91
2018-02-14T06:57:44.543Z,880.90
2018-02-14T06:58:44.519Z,880.94
2018-02-14T06:59:44.497Z,880.95
2018-02-14T07:00:44.471Z,880.94
2018-02-14T07:01:44.446Z,880.92
2018-02-14T07:02:44.425Z,880.96
2018-02-14T07:03:44.406Z,880.98
2018-02-14T07:04:44.387Z,880.96
2018-02-14T07:05:44.358Z,880.97
2018-02-14T07:06:44.340Z,881.01
2018-02-14T07:07:44.315Z,880.97
2018-02-14T07:08:44.295Z,880.98
2018-02-14T07:09:44.271Z,881.02
2018-02-14T07:10:44.249Z,881.04
2018-02-14T07:11:44.229Z,881.02
2018-02-14T07:12:44.217Z,881.08
2018-02-14T07:13:44.187Z,881.07
2018-02-14T07:14:44.159Z,881.12
2018-02-14T07:15:44.133Z,881.11
2018-02-14T07:16:44.114Z,881.15
2018-02-14T07:17:44.095Z,881.17
2018-02-14T07:18:44.065Z,881.22
2018-02-14T07:19:44.048Z,881.22
2018-02-14T07:20:44.029Z,881.26
2018-02-14T07:21:44.003Z,881.33
2018-02-14T07:22:44.020Z,881.36
2018-02-14T07:23:43.959Z,881.35
2018-02-14T07:24:43.943Z,881.40
2018-02-14T07:25:43.915Z,881.38
2018-02-14T07:26:43.895Z,881.40
2018-02-14T07:27:43.871Z,881.38
2018-02-14T07:28:43.849Z,881.41
2018-02-14T07:29:43.827Z,881.43
2018-02-14T07:30:43.801Z,881.44
2018-02-14T07:31:43.784Z,881.49
2018-02-14T07:32:43.761Z,881.47
2018-02-14T07:33:43.740Z,881.44
2018-02-14T07:34:43.721Z,881.47
2018-02-14T07:35:43.695Z,881.49
2018-02-14T07:36:43.674Z,881.51
2018-02-14T07:37:43.647Z,881.56
2018-02-14T07:38:43.625Z,881.58
2018-02-14T07:39:43.607Z,881.57
2018-02-14T07:40:43.593Z,881.56
2018-02-14T07:41:43.569Z,881.56
2018-02-14T07:42:43.537Z,881.55
2018-02-14T07:43:43.515Z,881.54
2018-02-14T07:44:43.492Z,881.57
2018-02-14T07:45:43.471Z,881.57
2018-02-14T07:46:43.447Z,881.57
2018-02-14T07:47:43.425Z,881.57
2018-02-14T07:48:43.408Z,881.59
2018-02-14T07:49:43.385Z,881.63
2018-02-14T07:50:43.383Z,881.66
2018-02-14T07:51:43.335Z,881.61
2018-02-14T07:52:43.319Z,881.66
2018-02-14T07:53:43.291Z,881.64
2018-02-14T07:54:43.275Z,881.66
2018-02-14T07:55:43.247Z,881.67
2018-02-14T07:56:43.229Z,881.71
2018-02-14T07:57:43.209Z,881.69
2018-02-14T07:58:43.187Z,881.74
2018-02-14T07:59:43.163Z,881.74
2018-02-14T08:00:43.141Z,881.75
2018-02-14T08:01:43.123Z,881.75
2018-02-14T08:02:43.095Z,881.69
2018-02-14T08:03:43.081Z,881.73
2018-02-14T08:04:43.058Z,881.67
2018-02-14T08:05:43.033Z,881.64
2018-02-14T08:06:43.011Z,881.68
2018-02-14T08:07:42.989Z,881.72
2018-02-14T08:08:42.971Z,881.71
2018-02-14T08:09:42.949Z,881.73
2018-02-14T08:10:42.923Z,881.71
2018-02-14T08:11:42.901Z,881.68
2018-02-14T08:12:42.886Z,881.72
2018-02-14T08:13:42.859Z,881.74
2018-02-14T08:14:42.839Z,881.74
2018-02-14T08:15:42.821Z,881.76
2018-02-14T08:16:42.803Z,881.72
2018-02-14T08:17:42.780Z,881.79
2018-02-14T08:18:42.755Z,881.81
2018-02-14T08:19:42.741Z,881.80
2018-02-14T08:20:42.716Z,881.88
2018-02-14T08:21:42.696Z,881.84
2018-02-14T08:22:42.675Z,881.87
2018-02-14T08:23:42.655Z,881.88
2018-02-14T08:24:42.633Z,881.84
2018-02-14T08:25:42.617Z,881.87
2018-02-14T08:26:42.589Z,881.84
2018-02-14T08:27:42.574Z,881.83
2018-02-14T08:28:42.556Z,881.88
2018-02-14T08:29:42.533Z,881.90
2018-02-14T08:30:42.512Z,881.90
2018-02-14T08:31:42.489Z,881.91
2018-02-14T08:32:42.478Z,881.92
2018-02-14T08:33:42.456Z,881.88
2018-02-14T08:34:42.437Z,881.80
2018-02-14T08:35:42.419Z,881.85
2018-02-14T08:36:42.395Z,881.85
2018-02-14T08:37:42.373Z,881.85
2018-02-14T08:38:42.355Z,881.86
2018-02-14T08:39:42.340Z,881.90
2018-02-14T08:40:42.318Z,881.92
2018-02-14T08:41:42.304Z,881.95
2018-02-14T08:42:42.277Z,881.97
2018-02-14T08:43:42.259Z,881.94
2018-02-14T08:44:42.243Z,882.01
2018-02-14T08:45:42.223Z,881.96
2018-02-14T08:46:42.203Z,881.98
2018-02-14T08:47:42.190Z,882.00
2018-02-14T08:48:42.164Z,881.95
2018-02-14T08:49:42.148Z,881.98
2018-02-14T08:50:42.132Z,881.94
2018-02-14T08:51:42.108Z,881.90
2018-02-14T08:52:42.088Z,881.96
2018-02-14T08:53:42.066Z,881.95
2018-02-14T08:54:42.053Z,881.98
2018-02-14T08:55:42.032Z,881.97
2018-02-14T08:56:42.014Z,882.01
2018-02-14T08:57:41.990Z,882.01
2018-02-14T08:58:41.978Z,882.02
2018-02-14T08:59:41.957Z,882.07
2018-02-14T09:00:41.939Z,882.11
2018-02-14T09:01:41.922Z,882.04
2018-02-14T09:02:41.907Z,882.06
2018-02-14T09:03:41.892Z,882.08
2018-02-14T09:04:41.874Z,882.08
2018-02-14T09:05:41.850Z,882.07
2018-02-14T09:06:41.834Z,882.10
2018-02-14T09:07:41.820Z,882.09
2018-02-14T09:08:41.802Z,882.07
2018-02-14T09:09:41.778Z,882.07
2018-02-14T09:10:41.767Z,882.10
2018-02-14T09:11:41.748Z,882.10
2018-02-14T09:12:41.727Z,882.09
2018-02-14T09:13:41.712Z,882.06
2018-02-14T09:14:41.691Z,882.08
2018-02-14T09:15:41.679Z,882.09
2018-02-14T09:16:41.663Z,882.09
2018-02-14T09:17:41.639Z,882.09
2018-02-14T09:18:41.631Z,882.08
2018-02-14T09:19:41.609Z,882.11
2018-02-14T09:20:41.595Z,882.09
2018-02-14T09:21:41.581Z,882.12
2018-02-14T09:22:41.559Z,882.12
2018-02-14T09:23:41.541Z,882.15
2018-02-14T09:24:41.587Z,882.12
2018-02-14T09:25:41.512Z,882.13
2018-02-14T09:26:41.493Z,882.09
2018-02-14T09:27:41.483Z,882.13
2018-02-14T09:28:41.461Z,882.10
2018-02-14T09:29:41.443Z,882.11
2018-02-14T09:30:41.433Z,882.09
2018-02-14T09:31:41.413Z,882.06
2018-02-14T09:32:41.399Z,882.15
2018-02-14T09:33:41.382Z,882.12
2018-02-14T09:34:41.365Z,882.16
2018-02-14T09:35:41.349Z,882.10
2018-02-14T09:36:41.333Z,882.18
2018-02-14T09:37:41.319Z,882.17
2018-02-14T09:38:41.301Z,882.21
2018-02-14T09:39:41.289Z,882.20
2018-02-14T09:40:41.275Z,882.23
2018-02-14T09:41:41.259Z,882.20
2018-02-14T09:42:41.239Z,882.20
2018-02-14T09:43:41.228Z,882.25
2018-02-14T09:44:41.212Z,882.22
2018-02-14T09:45:41.200Z,882.20
2018-02-14T09:46:41.181Z,882.22
2018-02-14T09:47:41.165Z,882.23
2018-02-14T09:48:41.145Z,882.26
2018-02-14T09:49:41.133Z,882.29
2018-02-14T09:50:41.113Z,882.25
2018-02-14T09:51:41.100Z,882.25
2018-02-14T09:52:41.085Z,882.27
2018-02-14T09:53:41.075Z,882.26
2018-02-14T09:54:41.062Z,882.25
2018-02-14T09:55:41.048Z,882.24
2018-02-14T09:56:41.028Z,882.29
2018-02-14T09:57:41.009Z,882.28
2018-02-14T09:58:40.996Z,882.29
2018-02-14T09:59:40.982Z,882.33
2018-02-14T10:00:40.971Z,882.34
2018-02-14T10:01:40.956Z,882.35
2018-02-14T10:02:40.940Z,882.32
2018-02-14T10:03:40.920Z,882.32
2018-02-14T10:04:40.911Z,882.32
2018-02-14T10:05:40.893Z,882.37
2018-02-14T10:06:40.894Z,882.36
2018-02-14T10:07:40.866Z,882.36
2018-02-14T10:08:40.850Z,882.36
2018-02-14T10:09:40.842Z,882.36
2018-02-14T10:10:40.824Z,882.38
2018-02-14T10:11:40.807Z,882.38
2018-02-14T10:12:40.792Z,882.37
2018-02-14T10:13:40.782Z,882.42
2018-02-14T10:14:40.768Z,882.40
2018-02-14T10:15:40.765Z,882.37
2018-02-14T10:16:40.742Z,882.38
2018-02-14T10:17:40.726Z,882.36
2018-02-14T10:18:40.712Z,882.39
2018-02-14T10:19:40.700Z,882.38
2018-02-14T10:20:40.689Z,882.36
2018-02-14T10:21:40.674Z,882.39
2018-02-14T10:22:40.664Z,882.37
2018-02-14T10:23:40.648Z,882.37
2018-02-14T10:24:40.637Z,882.39
2018-02-14T10:25:40.623Z,882.36
2018-02-14T10:26:40.604Z,882.37
2018-02-14T10:27:40.592Z,882.34
2018-02-14T10:28:40.576Z,882.35
2018-02-14T10:29:40.560Z,882.34
2018-02-14T10:30:40.548Z,882.38
2018-02-14T10:31:40.544Z,882.30
2018-02-14T10:32:40.525Z,882.33
2018-02-14T10:33:40.512Z,882.30
2018-02-14T10:34:40.501Z,882.32
2018-02-14T10:35:40.484Z,882.29
2018-02-14T10:36:40.467Z,882.32
2018-02-14T10:37:40.460Z,882.35
2018-02-14T10:38:40.442Z,882.34
2018-02-14T10:39:40.437Z,882.38
2018-02-14T10:40:40.414Z,882.41
2018-02-14T10:41:40.402Z,882.40
2018-02-14T10:42:40.389Z,882.43
2018-02-14T10:43:40.378Z,882.37
2018-02-14T10:44:40.371Z,882.42
2018-02-14T10:45:40.354Z,882.40
2018-02-14T10:46:40.336Z,882.39
2018-02-14T10:47:40.350Z,882.41
2018-02-14T10:48:40.316Z,882.44
2018-02-14T10:49:40.296Z,882.43
2018-02-14T10:50:40.282Z,882.44
2018-02-14T10:51:40.275Z,882.43
2018-02-14T10:52:40.257Z,882.45
2018-02-14T10:53:40.244Z,882.45
2018-02-14T10:54:40.238Z,882.45
2018-02-14T10:55:40.222Z,882.45
2018-02-14T10:56:40.206Z,882.43
2018-02-14T10:57:40.194Z,882.40
2018-02-14T10:58:40.180Z,882.41
2018-02-14T10:59:40.166Z,882.40
2018-02-14T11:00:40.153Z,882.37
2018-02-14T11:01:40.145Z,882.39
2018-02-14T11:02:40.130Z,882.36
2018-02-14T11:03:40.115Z,882.34
2018-02-14T11:04:40.100Z,882.35
2018-02-14T11:05:40.096Z,882.34
2018-02-14T11:06:40.081Z,882.34
2018-02-14T11:07:40.070Z,882.37
2018-02-14T11:08:40.057Z,882.35
2018-02-14T11:09:40.042Z,882.38
2018-02-14T11:10:40.032Z,882.34
2018-02-14T11:11:40.020Z,882.36
2018-02-14T11:12:40.010Z,882.37
2018-02-14T11:13:39.989Z,882.40
2018-02-14T11:14:39.983Z,882.38
2018-02-14T11:15:39.975Z,882.37
2018-02-14T11:16:39.962Z,882.38
2018-02-14T11:17:39.947Z,882.38
2018-02-14T11:18:39.942Z,882.39
2018-02-14T11:19:39.958Z,882.35
2018-02-14T11:20:39.912Z,882.36
2018-02-14T11:21:39.895Z,882.39
2018-02-14T11:22:39.889Z,882.39
2018-02-14T11:23:39.881Z,882.43
2018-02-14T11:24:39.868Z,882.38
2018-02-14T11:25:39.854Z,882.43
2018-02-14T11:26:39.848Z,882.41
2018-02-14T11:27:39.834Z,882.42
2018-02-14T11:28:39.818Z,882.44
2018-02-14T11:29:39.814Z,882.37
2018-02-14T11:30:39.796Z,882.46
2018-02-14T11:31:39.791Z,882.44
2018-02-14T11:32:39.777Z,882.39
2018-02-14T11:33:39.768Z,882.40
2018-02-14T11:34:39.756Z,882.51
2018-02-14T11:35:39.745Z,882.49
2018-02-14T11:36:39.743Z,882.49
2018-02-14T11:37:39.724Z,882.49
2018-02-14T11:38:39.710Z,882.50
2018-02-14T11:39:39.704Z,882.53
2018-02-14T11:40:39.694Z,882.55
2018-02-14T11:41:39.676Z,882.52
2018-02-14T11:42:39.670Z,882.42
2018-02-14T11:43:39.658Z,882.41
2018-02-14T11:44:39.642Z,882.43
2018-02-14T11:45:39.641Z,882.39
2018-02-14T11:46:39.626Z,882.39
2018-02-14T11:47:39.618Z,882.37
2018-02-14T11:48:39.602Z,882.43
2018-02-14T11:49:39.592Z,882.41
2018-02-14T11:50:39.582Z,882.39
2018-02-14T11:51:39.572Z,882.36
2018-02-14T11:52:39.560Z,882.40
2018-02-14T11:53:39.546Z,882.44
2018-02-14T11:54:39.534Z,882.43
2018-02-14T11:55:39.524Z,882.33
2018-02-14T11:56:39.521Z,882.46
2018-02-14T11:57:39.502Z,882.43
2018-02-14T11:58:39.492Z,882.44
2018-02-14T11:59:39.478Z,882.29
2018-02-14T12:00:39.472Z,882.26
2018-02-14T12:01:39.458Z,882.30
2018-02-14T12:02:39.446Z,882.41
2018-02-14T12:03:39.438Z,882.40
2018-02-14T12:04:39.424Z,882.37
2018-02-14T12:05:39.410Z,882.38
2018-02-14T12:06:39.404Z,882.37
2018-02-14T12:07:39.394Z,882.34
2018-02-14T12:08:39.384Z,882.33
2018-02-14T12:09:39.372Z,882.40
2018-02-14T12:10:39.361Z,882.39
2018-02-14T12:11:39.344Z,882.40
2018-02-14T12:12:39.344Z,882.43
2018-02-14T12:13:39.328Z,882.44
2018-02-14T12:14:39.321Z,882.44
2018-02-14T12:15:39.302Z,882.46
2018-02-14T12:16:39.294Z,882.46
2018-02-14T12:17:39.281Z,882.49
2018-02-14T12:18:39.272Z,882.45
2018-02-14T12:19:39.300Z,882.47
2018-02-14T12:20:39.254Z,882.48
2018-02-14T12:21:39.242Z,882.47
2018-02-14T12:22:39.226Z,882.47
2018-02-14T12:23:39.219Z,882.46
2018-02-14T12:24:39.214Z,882.45
2018-02-14T12:25:39.200Z,882.43
2018-02-14T12:26:39.192Z,882.43
2018-02-14T12:27:39.178Z,882.43
2018-02-14T12:28:39.168Z,882.30